sensor_id;sensor_type;location;lat;lon;timestamp;pressure;altitude;pressure_sealevel;temperature;humidity
61205;BME280;47068;55.780;37.520;2023-10-13T00:02:06;98499.16;;;10.86;77.17
61205;BME280;47068;55.780;37.520;2023-10-13T00:04:32;98510.97;;;10.77;76.55
61205;BME280;47068;55.780;37.520;2023-10-13T00:07:00;98515.84;;;10.74;76.71
61205;BME280;47068;55.780;37.520;2023-10-13T00:09:27;98516.69;;;10.74;76.99
61205;BME280;47068;55.780;37.520;2023-10-13T00:12:01;98513.06;;;10.82;77.20
61205;BME280;47068;55.780;37.520;2023-10-13T00:14:28;98513.53;;;10.92;76.38
61205;BME280;47068;55.780;37.520;2023-10-13T00:17:00;98518.47;;;10.95;76.39
61205;BME280;47068;55.780;37.520;2023-10-13T00:19:48;98516.41;;;10.90;75.85
61205;BME280;47068;55.780;37.520;2023-10-13T00:22:17;98518.00;;;10.85;76.17
61205;BME280;47068;55.780;37.520;2023-10-13T00:24:47;98528.25;;;10.88;76.10
61205;BME280;47068;55.780;37.520;2023-10-13T00:27:16;98523.75;;;10.88;75.55
61205;BME280;47068;55.780;37.520;2023-10-13T00:30:02;98533.56;;;10.88;75.57
61205;BME280;47068;55.780;37.520;2023-10-13T00:32:47;98521.72;;;10.90;74.60
61205;BME280;47068;55.780;37.520;2023-10-13T00:35:17;98533.00;;;10.92;74.52
61205;BME280;47068;55.780;37.520;2023-10-13T00:38:02;98524.38;;;10.90;74.28
61205;BME280;47068;55.780;37.520;2023-10-13T00:40:42;98528.91;;;10.96;74.51
61205;BME280;47068;55.780;37.520;2023-10-13T00:43:09;98526.66;;;11.00;74.12
61205;BME280;47068;55.780;37.520;2023-10-13T00:45:53;98530.38;;;10.99;73.78
61205;BME280;47068;55.780;37.520;2023-10-13T00:48:27;98520.16;;;11.02;73.92
61205;BME280;47068;55.780;37.520;2023-10-13T00:51:13;98534.97;;;11.12;73.92
61205;BME280;47068;55.780;37.520;2023-10-13T00:53:44;98540.69;;;11.15;73.44
61205;BME280;47068;55.780;37.520;2023-10-13T00:56:10;98530.91;;;11.22;73.16
61205;BME280;47068;55.780;37.520;2023-10-13T00:58:44;98544.03;;;11.24;72.87
61205;BME280;47068;55.780;37.520;2023-10-13T01:01:11;98550.00;;;11.26;72.55
61205;BME280;47068;55.780;37.520;2023-10-13T01:03:54;98543.84;;;11.25;72.17
61205;BME280;47068;55.780;37.520;2023-10-13T01:06:28;98544.22;;;11.22;71.94
61205;BME280;47068;55.780;37.520;2023-10-13T01:09:12;98548.91;;;11.20;72.09
61205;BME280;47068;55.780;37.520;2023-10-13T01:11:40;98556.53;;;11.23;72.39
61205;BME280;47068;55.780;37.520;2023-10-13T01:14:08;98553.06;;;11.29;72.21
61205;BME280;47068;55.780;37.520;2023-10-13T01:16:33;98555.97;;;11.34;71.25
61205;BME280;47068;55.780;37.520;2023-10-13T01:18:58;98554.75;;;11.37;71.09
61205;BME280;47068;55.780;37.520;2023-10-13T01:21:30;98546.16;;;11.41;70.57
61205;BME280;47068;55.780;37.520;2023-10-13T01:23:57;98559.09;;;11.44;70.74
61205;BME280;47068;55.780;37.520;2023-10-13T01:26:23;98555.19;;;11.40;70.68
61205;BME280;47068;55.780;37.520;2023-10-13T01:28:56;98570.53;;;11.38;70.85
61205;BME280;47068;55.780;37.520;2023-10-13T01:31:21;98557.56;;;11.29;70.38
61205;BME280;47068;55.780;37.520;2023-10-13T01:33:54;98560.03;;;11.30;70.86
61205;BME280;47068;55.780;37.520;2023-10-13T01:36:23;98565.38;;;11.30;71.17
61205;BME280;47068;55.780;37.520;2023-10-13T01:38:49;98566.59;;;11.34;70.86
61205;BME280;47068;55.780;37.520;2023-10-13T01:41:18;98567.06;;;11.38;69.96
61205;BME280;47068;55.780;37.520;2023-10-13T01:43:44;98565.41;;;11.37;70.44
61205;BME280;47068;55.780;37.520;2023-10-13T01:46:10;98570.72;;;11.37;70.55
61205;BME280;47068;55.780;37.520;2023-10-13T01:48:35;98569.91;;;11.36;70.13
61205;BME280;47068;55.780;37.520;2023-10-13T01:51:05;98566.22;;;11.37;70.63
61205;BME280;47068;55.780;37.520;2023-10-13T01:53:35;98561.53;;;11.39;70.68
61205;BME280;47068;55.780;37.520;2023-10-13T01:56:01;98577.28;;;11.41;70.30
61205;BME280;47068;55.780;37.520;2023-10-13T01:58:30;98575.69;;;11.40;70.19
61205;BME280;47068;55.780;37.520;2023-10-13T02:00:56;98571.75;;;11.36;70.30
61205;BME280;47068;55.780;37.520;2023-10-13T02:03:22;98583.00;;;11.31;70.35
61205;BME280;47068;55.780;37.520;2023-10-13T02:05:47;98573.53;;;11.29;70.02
61205;BME280;47068;55.780;37.520;2023-10-13T02:08:22;98581.34;;;11.30;70.20
61205;BME280;47068;55.780;37.520;2023-10-13T02:10:52;98574.00;;;11.32;70.23
61205;BME280;47068;55.780;37.520;2023-10-13T02:13:18;98581.97;;;11.32;70.06
61205;BME280;47068;55.780;37.520;2023-10-13T02:15:44;98582.78;;;11.26;69.92
61205;BME280;47068;55.780;37.520;2023-10-13T02:18:13;98584.94;;;11.16;70.53
61205;BME280;47068;55.780;37.520;2023-10-13T02:20:38;98583.69;;;11.12;70.88
61205;BME280;47068;55.780;37.520;2023-10-13T02:23:08;98577.09;;;11.08;70.40
61205;BME280;47068;55.780;37.520;2023-10-13T02:25:37;98582.38;;;11.01;70.22
61205;BME280;47068;55.780;37.520;2023-10-13T02:28:11;98584.75;;;10.90;70.06
61205;BME280;47068;55.780;37.520;2023-10-13T02:30:40;98592.28;;;10.86;70.68
61205;BME280;47068;55.780;37.520;2023-10-13T02:33:09;98598.44;;;10.87;70.89
61205;BME280;47068;55.780;37.520;2023-10-13T02:35:37;98606.41;;;10.87;70.33
61205;BME280;47068;55.780;37.520;2023-10-13T02:38:06;98618.69;;;10.88;70.75
61205;BME280;47068;55.780;37.520;2023-10-13T02:40:36;98613.63;;;10.93;70.71
61205;BME280;47068;55.780;37.520;2023-10-13T02:43:02;98616.31;;;10.99;69.98
61205;BME280;47068;55.780;37.520;2023-10-13T02:45:28;98626.41;;;11.04;69.95
61205;BME280;47068;55.780;37.520;2023-10-13T02:47:54;98628.91;;;11.05;69.68
61205;BME280;47068;55.780;37.520;2023-10-13T02:50:34;98625.41;;;11.05;69.64
61205;BME280;47068;55.780;37.520;2023-10-13T02:52:59;98627.28;;;11.11;69.59
61205;BME280;47068;55.780;37.520;2023-10-13T02:55:25;98633.19;;;11.06;69.48
61205;BME280;47068;55.780;37.520;2023-10-13T02:57:50;98631.09;;;11.02;69.57
61205;BME280;47068;55.780;37.520;2023-10-13T03:00:20;98637.06;;;11.04;69.91
61205;BME280;47068;55.780;37.520;2023-10-13T03:02:48;98639.53;;;11.05;69.88
61205;BME280;47068;55.780;37.520;2023-10-13T03:05:23;98642.19;;;11.05;69.89
61205;BME280;47068;55.780;37.520;2023-10-13T03:07:48;98643.06;;;11.13;70.01
61205;BME280;47068;55.780;37.520;2023-10-13T03:10:15;98646.63;;;11.20;69.67
61205;BME280;47068;55.780;37.520;2023-10-13T03:12:44;98639.06;;;11.23;69.55
61205;BME280;47068;55.780;37.520;2023-10-13T03:15:13;98648.06;;;11.22;69.85
61205;BME280;47068;55.780;37.520;2023-10-13T03:17:39;98647.88;;;11.24;69.49
61205;BME280;47068;55.780;37.520;2023-10-13T03:20:09;98648.44;;;11.19;69.42
61205;BME280;47068;55.780;37.520;2023-10-13T03:22:37;98647.56;;;11.12;69.52
61205;BME280;47068;55.780;37.520;2023-10-13T03:25:02;98646.19;;;10.95;69.48
61205;BME280;47068;55.780;37.520;2023-10-13T03:27:32;98642.16;;;10.99;69.92
61205;BME280;47068;55.780;37.520;2023-10-13T03:30:23;98653.22;;;11.02;70.04
61205;BME280;47068;55.780;37.520;2023-10-13T03:32:55;98658.72;;;11.01;69.22
61205;BME280;47068;55.780;37.520;2023-10-13T03:35:21;98652.03;;;10.84;69.35
61205;BME280;47068;55.780;37.520;2023-10-13T03:37:52;98652.94;;;10.70;70.26
61205;BME280;47068;55.780;37.520;2023-10-13T03:40:18;98660.09;;;10.69;70.32
61205;BME280;47068;55.780;37.520;2023-10-13T03:42:46;98663.56;;;10.70;70.15
61205;BME280;47068;55.780;37.520;2023-10-13T03:45:30;98591.50;;;10.22;70.17
61205;BME280;47068;55.780;37.520;2023-10-13T03:48:02;98692.13;;;10.61;69.83
61205;BME280;47068;55.780;37.520;2023-10-13T03:50:37;98695.72;;;10.53;70.55
61205;BME280;47068;55.780;37.520;2023-10-13T03:53:11;98682.22;;;10.55;70.47
61205;BME280;47068;55.780;37.520;2023-10-13T03:55:38;98689.28;;;10.62;70.28
61205;BME280;47068;55.780;37.520;2023-10-13T03:58:03;98701.16;;;10.66;69.93
61205;BME280;47068;55.780;37.520;2023-10-13T04:00:29;98702.38;;;10.64;69.93
61205;BME280;47068;55.780;37.520;2023-10-13T04:02:56;98708.78;;;10.70;69.85
61205;BME280;47068;55.780;37.520;2023-10-13T04:05:27;98708.84;;;10.76;69.83
61205;BME280;47068;55.780;37.520;2023-10-13T04:08:15;98720.56;;;10.82;69.48
61205;BME280;47068;55.780;37.520;2023-10-13T04:10:53;98710.75;;;10.82;69.21
61205;BME280;47068;55.780;37.520;2023-10-13T04:13:19;98720.94;;;10.79;68.86
61205;BME280;47068;55.780;37.520;2023-10-13T04:16:09;98722.97;;;10.77;69.20
61205;BME280;47068;55.780;37.520;2023-10-13T04:19:00;98728.47;;;10.75;69.02
61205;BME280;47068;55.780;37.520;2023-10-13T04:21:25;98738.75;;;10.78;68.61
61205;BME280;47068;55.780;37.520;2023-10-13T04:24:10;98749.25;;;10.86;68.53
61205;BME280;47068;55.780;37.520;2023-10-13T04:26:42;98753.03;;;10.92;68.56
61205;BME280;47068;55.780;37.520;2023-10-13T04:29:27;98752.75;;;10.87;67.72
61205;BME280;47068;55.780;37.520;2023-10-13T04:32:10;98759.72;;;10.88;68.27
61205;BME280;47068;55.780;37.520;2023-10-13T04:34:40;98762.28;;;10.96;67.80
61205;BME280;47068;55.780;37.520;2023-10-13T04:37:10;98766.19;;;11.00;67.99
61205;BME280;47068;55.780;37.520;2023-10-13T04:39:53;98768.50;;;11.03;67.35
61205;BME280;47068;55.780;37.520;2023-10-13T04:42:24;98777.66;;;11.00;67.88
61205;BME280;47068;55.780;37.520;2023-10-13T04:45:12;98777.88;;;10.99;67.27
61205;BME280;47068;55.780;37.520;2023-10-13T04:48:01;98787.47;;;11.00;67.41
61205;BME280;47068;55.780;37.520;2023-10-13T04:50:51;98789.66;;;11.11;67.58
61205;BME280;47068;55.780;37.520;2023-10-13T04:53:18;98803.28;;;11.23;67.20
61205;BME280;47068;55.780;37.520;2023-10-13T04:55:59;98804.44;;;11.35;66.25
61205;BME280;47068;55.780;37.520;2023-10-13T04:58:28;98802.22;;;11.38;65.44
61205;BME280;47068;55.780;37.520;2023-10-13T05:01:31;98824.72;;;11.36;66.01
61205;BME280;47068;55.780;37.520;2023-10-13T05:04:15;98823.06;;;11.35;66.10
61205;BME280;47068;55.780;37.520;2023-10-13T05:06:43;98819.78;;;11.33;65.35
61205;BME280;47068;55.780;37.520;2023-10-13T05:09:09;98824.28;;;11.32;65.05
61205;BME280;47068;55.780;37.520;2023-10-13T05:11:53;98815.72;;;11.37;65.07
61205;BME280;47068;55.780;37.520;2023-10-13T05:14:38;98827.19;;;11.37;65.05
61205;BME280;47068;55.780;37.520;2023-10-13T05:17:22;98832.16;;;11.40;65.28
61205;BME280;47068;55.780;37.520;2023-10-13T05:20:06;98838.22;;;11.56;64.97
61205;BME280;47068;55.780;37.520;2023-10-13T05:22:49;98837.72;;;11.67;64.25
61205;BME280;47068;55.780;37.520;2023-10-13T05:25:37;98841.00;;;11.90;64.43
61205;BME280;47068;55.780;37.520;2023-10-13T05:28:21;98845.00;;;12.01;63.59
61205;BME280;47068;55.780;37.520;2023-10-13T05:31:06;98845.72;;;11.88;63.29
61205;BME280;47068;55.780;37.520;2023-10-13T05:33:49;98861.03;;;11.79;63.44
61205;BME280;47068;55.780;37.520;2023-10-13T05:36:33;98865.28;;;11.74;63.36
61205;BME280;47068;55.780;37.520;2023-10-13T05:39:17;98875.94;;;11.74;63.99
61205;BME280;47068;55.780;37.520;2023-10-13T05:42:01;98892.09;;;11.72;63.39
61205;BME280;47068;55.780;37.520;2023-10-13T05:44:45;98880.78;;;11.70;63.37
61205;BME280;47068;55.780;37.520;2023-10-13T05:47:29;98889.72;;;11.63;64.04
61205;BME280;47068;55.780;37.520;2023-10-13T05:50:15;98890.19;;;11.66;64.38
61205;BME280;47068;55.780;37.520;2023-10-13T05:52:49;98880.41;;;11.73;64.22
61205;BME280;47068;55.780;37.520;2023-10-13T05:55:27;98894.19;;;11.77;63.15
61205;BME280;47068;55.780;37.520;2023-10-13T05:58:11;98898.56;;;11.84;63.05
61205;BME280;47068;55.780;37.520;2023-10-13T06:00:55;98901.94;;;11.93;62.08
61205;BME280;47068;55.780;37.520;2023-10-13T06:03:39;98905.75;;;11.84;63.04
61205;BME280;47068;55.780;37.520;2023-10-13T06:06:23;98914.09;;;11.74;63.48
61205;BME280;47068;55.780;37.520;2023-10-13T06:09:07;98912.09;;;11.83;62.54
61205;BME280;47068;55.780;37.520;2023-10-13T06:11:51;98920.78;;;11.92;62.72
61205;BME280;47068;55.780;37.520;2023-10-13T06:14:35;98918.94;;;11.92;62.27
61205;BME280;47068;55.780;37.520;2023-10-13T06:17:19;98921.34;;;12.08;62.10
61205;BME280;47068;55.780;37.520;2023-10-13T06:20:03;98931.09;;;12.44;61.38
61205;BME280;47068;55.780;37.520;2023-10-13T06:22:47;98940.13;;;12.77;58.80
61205;BME280;47068;55.780;37.520;2023-10-13T06:25:31;98946.84;;;12.73;59.24
61205;BME280;47068;55.780;37.520;2023-10-13T06:28:15;98945.22;;;12.72;59.31
61205;BME280;47068;55.780;37.520;2023-10-13T06:30:59;98942.63;;;12.85;57.88
61205;BME280;47068;55.780;37.520;2023-10-13T06:33:26;98938.69;;;13.76;56.64
61205;BME280;47068;55.780;37.520;2023-10-13T06:35:57;98947.81;;;14.54;54.28
61205;BME280;47068;55.780;37.520;2023-10-13T06:38:23;98953.16;;;14.28;54.57
61205;BME280;47068;55.780;37.520;2023-10-13T06:40:48;98950.66;;;13.94;54.33
61205;BME280;47068;55.780;37.520;2023-10-13T06:43:15;98943.44;;;14.93;52.49
61205;BME280;47068;55.780;37.520;2023-10-13T06:45:45;98951.19;;;15.72;50.33
61205;BME280;47068;55.780;37.520;2023-10-13T06:48:25;98957.59;;;17.20;46.78
61205;BME280;47068;55.780;37.520;2023-10-13T06:50:50;98956.63;;;18.64;44.08
61205;BME280;47068;55.780;37.520;2023-10-13T06:53:21;98957.91;;;19.08;41.34
61205;BME280;47068;55.780;37.520;2023-10-13T06:55:46;98959.13;;;19.80;39.60
61205;BME280;47068;55.780;37.520;2023-10-13T06:58:13;98959.56;;;20.34;37.98
61205;BME280;47068;55.780;37.520;2023-10-13T07:00:42;98972.75;;;20.80;37.37
61205;BME280;47068;55.780;37.520;2023-10-13T07:03:18;98976.13;;;20.37;37.13
61205;BME280;47068;55.780;37.520;2023-10-13T07:05:43;98987.31;;;18.86;39.45
61205;BME280;47068;55.780;37.520;2023-10-13T07:08:09;98986.72;;;17.41;41.87
61205;BME280;47068;55.780;37.520;2023-10-13T07:10:47;98991.00;;;16.38;44.52
61205;BME280;47068;55.780;37.520;2023-10-13T07:13:26;99004.56;;;15.22;45.84
61205;BME280;47068;55.780;37.520;2023-10-13T07:15:53;99012.69;;;14.56;48.09
61205;BME280;47068;55.780;37.520;2023-10-13T07:18:25;99002.00;;;14.56;48.21
61205;BME280;47068;55.780;37.520;2023-10-13T07:20:50;99014.91;;;14.33;48.91
61205;BME280;47068;55.780;37.520;2023-10-13T07:23:15;99020.66;;;14.17;49.24
61205;BME280;47068;55.780;37.520;2023-10-13T07:25:54;99024.06;;;13.91;49.98
61205;BME280;47068;55.780;37.520;2023-10-13T07:28:29;99017.94;;;15.29;48.04
61205;BME280;47068;55.780;37.520;2023-10-13T07:30:56;99017.13;;;16.49;45.61
61205;BME280;47068;55.780;37.520;2023-10-13T07:33:21;99023.63;;;16.10;44.46
61205;BME280;47068;55.780;37.520;2023-10-13T07:35:47;99038.28;;;15.50;45.52
61205;BME280;47068;55.780;37.520;2023-10-13T07:38:17;99039.63;;;15.01;46.76
61205;BME280;47068;55.780;37.520;2023-10-13T07:40:43;99036.16;;;14.74;47.73
61205;BME280;47068;55.780;37.520;2023-10-13T07:43:18;99048.94;;;14.66;47.91
61205;BME280;47068;55.780;37.520;2023-10-13T07:45:49;99056.75;;;15.84;45.62
61205;BME280;47068;55.780;37.520;2023-10-13T07:48:16;99039.94;;;16.71;44.19
61205;BME280;47068;55.780;37.520;2023-10-13T07:50:57;99051.06;;;17.00;43.87
61205;BME280;47068;55.780;37.520;2023-10-13T07:53:26;99059.53;;;16.97;43.93
61205;BME280;47068;55.780;37.520;2023-10-13T07:55:54;99053.69;;;16.81;42.41
61205;BME280;47068;55.780;37.520;2023-10-13T07:58:21;99066.88;;;16.20;43.50
61205;BME280;47068;55.780;37.520;2023-10-13T08:00:50;99071.53;;;15.55;44.85
61205;BME280;47068;55.780;37.520;2023-10-13T08:03:19;99075.28;;;15.02;46.14
61205;BME280;47068;55.780;37.520;2023-10-13T08:05:57;99082.31;;;14.70;47.23
61205;BME280;47068;55.780;37.520;2023-10-13T08:08:26;99092.78;;;14.51;47.43
61205;BME280;47068;55.780;37.520;2023-10-13T08:11:00;99098.34;;;14.43;47.18
61205;BME280;47068;55.780;37.520;2023-10-13T08:13:33;99110.69;;;14.44;47.42
61205;BME280;47068;55.780;37.520;2023-10-13T08:16:01;99111.75;;;14.63;47.40
61205;BME280;47068;55.780;37.520;2023-10-13T08:18:32;99096.31;;;14.65;47.49
61205;BME280;47068;55.780;37.520;2023-10-13T08:20:58;99111.38;;;14.86;47.28
61205;BME280;47068;55.780;37.520;2023-10-13T08:23:28;99111.34;;;15.06;46.56
61205;BME280;47068;55.780;37.520;2023-10-13T08:26:10;99126.59;;;15.18;46.27
61205;BME280;47068;55.780;37.520;2023-10-13T08:28:59;99121.44;;;14.84;45.67
61205;BME280;47068;55.780;37.520;2023-10-13T08:31:51;99124.50;;;14.74;46.16
61205;BME280;47068;55.780;37.520;2023-10-13T08:34:28;99133.56;;;14.80;46.11
61205;BME280;47068;55.780;37.520;2023-10-13T08:37:04;99139.13;;;14.58;45.70
61205;BME280;47068;55.780;37.520;2023-10-13T08:39:44;99148.41;;;14.63;46.31
61205;BME280;47068;55.780;37.520;2023-10-13T08:45:00;99148.34;;;14.43;45.64
61205;BME280;47068;55.780;37.520;2023-10-13T08:47:30;99161.81;;;14.15;45.84
61205;BME280;47068;55.780;37.520;2023-10-13T08:50:03;99172.38;;;13.82;45.16
61205;BME280;47068;55.780;37.520;2023-10-13T08:52:48;99167.34;;;13.72;44.80
61205;BME280;47068;55.780;37.520;2023-10-13T08:55:14;99171.47;;;13.68;45.55
61205;BME280;47068;55.780;37.520;2023-10-13T08:57:59;99171.38;;;13.55;46.03
61205;BME280;47068;55.780;37.520;2023-10-13T09:00:37;99171.03;;;13.37;45.77
61205;BME280;47068;55.780;37.520;2023-10-13T09:03:21;99178.25;;;13.43;46.50
61205;BME280;47068;55.780;37.520;2023-10-13T09:05:53;99178.34;;;13.56;45.47
61205;BME280;47068;55.780;37.520;2023-10-13T09:08:26;99190.31;;;13.60;46.62
61205;BME280;47068;55.780;37.520;2023-10-13T09:11:01;99187.88;;;13.65;45.23
61205;BME280;47068;55.780;37.520;2023-10-13T09:13:38;99192.88;;;13.75;45.75
61205;BME280;47068;55.780;37.520;2023-10-13T09:16:10;99204.44;;;13.82;45.34
61205;BME280;47068;55.780;37.520;2023-10-13T09:18:42;99200.22;;;13.66;46.17
61205;BME280;47068;55.780;37.520;2023-10-13T09:21:11;99193.88;;;13.67;46.09
61205;BME280;47068;55.780;37.520;2023-10-13T09:24:08;99205.28;;;13.83;46.64
61205;BME280;47068;55.780;37.520;2023-10-13T09:26:52;99208.81;;;13.90;46.33
61205;BME280;47068;55.780;37.520;2023-10-13T09:29:21;99213.88;;;13.78;46.73
61205;BME280;47068;55.780;37.520;2023-10-13T09:31:47;99220.91;;;13.86;46.21
61205;BME280;47068;55.780;37.520;2023-10-13T09:34:22;99224.78;;;14.17;46.77
61205;BME280;47068;55.780;37.520;2023-10-13T09:36:55;99231.56;;;14.54;44.98
61205;BME280;47068;55.780;37.520;2023-10-13T09:39:23;99229.53;;;14.56;44.79
61205;BME280;47068;55.780;37.520;2023-10-13T09:41:59;99233.72;;;14.79;44.82
61205;BME280;47068;55.780;37.520;2023-10-13T09:44:25;99240.53;;;15.01;43.58
61205;BME280;47068;55.780;37.520;2023-10-13T09:46:56;99252.88;;;14.89;44.22
61205;BME280;47068;55.780;37.520;2023-10-13T09:49:28;99255.03;;;14.52;45.04
61205;BME280;47068;55.780;37.520;2023-10-13T09:52:10;99255.03;;;14.18;45.08
61205;BME280;47068;55.780;37.520;2023-10-13T09:54:44;99253.63;;;13.88;46.40
61205;BME280;47068;55.780;37.520;2023-10-13T09:57:15;99251.69;;;13.75;46.69
61205;BME280;47068;55.780;37.520;2023-10-13T09:59:55;99260.22;;;13.64;47.14
61205;BME280;47068;55.780;37.520;2023-10-13T10:02:22;99261.38;;;13.48;46.99
61205;BME280;47068;55.780;37.520;2023-10-13T10:04:56;99257.00;;;13.19;47.06
61205;BME280;47068;55.780;37.520;2023-10-13T10:07:42;99261.34;;;13.06;48.07
61205;BME280;47068;55.780;37.520;2023-10-13T10:10:13;99264.03;;;13.06;47.70
61205;BME280;47068;55.780;37.520;2023-10-13T10:17:59;99270.66;;;13.31;47.06
61205;BME280;47068;55.780;37.520;2023-10-13T10:20:32;99278.28;;;13.55;46.61
61205;BME280;47068;55.780;37.520;2023-10-13T10:23:23;99272.34;;;13.88;45.02
61205;BME280;47068;55.780;37.520;2023-10-13T10:25:48;99286.75;;;13.87;44.41
61205;BME280;47068;55.780;37.520;2023-10-13T10:28:16;99289.16;;;13.54;45.75
61205;BME280;47068;55.780;37.520;2023-10-13T10:30:42;99295.28;;;13.48;45.49
61205;BME280;47068;55.780;37.520;2023-10-13T10:33:09;99304.13;;;13.48;46.34
61205;BME280;47068;55.780;37.520;2023-10-13T10:35:41;99297.91;;;13.41;46.21
61205;BME280;47068;55.780;37.520;2023-10-13T10:38:08;99303.72;;;13.51;46.42
61205;BME280;47068;55.780;37.520;2023-10-13T10:40:58;99300.56;;;13.41;44.99
61205;BME280;47068;55.780;37.520;2023-10-13T10:43:23;99299.78;;;13.26;44.91
61205;BME280;47068;55.780;37.520;2023-10-13T10:45:51;99301.75;;;13.17;45.25
61205;BME280;47068;55.780;37.520;2023-10-13T10:48:16;99313.59;;;13.29;44.76
61205;BME280;47068;55.780;37.520;2023-10-13T10:50:53;99313.34;;;13.24;44.70
61205;BME280;47068;55.780;37.520;2023-10-13T10:53:22;99314.53;;;13.22;44.53
61205;BME280;47068;55.780;37.520;2023-10-13T10:55:48;99325.81;;;13.17;45.39
61205;BME280;47068;55.780;37.520;2023-10-13T10:58:13;99325.50;;;13.27;45.63
61205;BME280;47068;55.780;37.520;2023-10-13T11:01:06;99337.50;;;13.37;45.17
61205;BME280;47068;55.780;37.520;2023-10-13T11:03:36;99333.88;;;13.45;44.59
61205;BME280;47068;55.780;37.520;2023-10-13T11:06:03;99357.03;;;13.38;44.50
61205;BME280;47068;55.780;37.520;2023-10-13T11:08:29;99351.88;;;13.36;44.39
61205;BME280;47068;55.780;37.520;2023-10-13T11:10:58;99313.94;;;13.05;44.90
61205;BME280;47068;55.780;37.520;2023-10-13T11:13:26;99350.63;;;13.32;44.75
61205;BME280;47068;55.780;37.520;2023-10-13T11:15:55;99352.00;;;13.28;44.06
61205;BME280;47068;55.780;37.520;2023-10-13T11:18:28;99351.16;;;13.28;44.99
61205;BME280;47068;55.780;37.520;2023-10-13T11:20:59;99353.47;;;13.31;44.51
61205;BME280;47068;55.780;37.520;2023-10-13T11:23:24;99360.28;;;13.33;44.81
61205;BME280;47068;55.780;37.520;2023-10-13T11:25:56;99370.22;;;13.39;44.22
61205;BME280;47068;55.780;37.520;2023-10-13T11:28:21;99374.50;;;13.34;43.34
61205;BME280;47068;55.780;37.520;2023-10-13T11:30:52;99373.31;;;13.22;43.86
61205;BME280;47068;55.780;37.520;2023-10-13T11:33:19;99374.31;;;13.21;43.71
61205;BME280;47068;55.780;37.520;2023-10-13T11:36:04;99367.97;;;13.22;44.24
61205;BME280;47068;55.780;37.520;2023-10-13T11:38:38;99376.63;;;13.24;43.77
61205;BME280;47068;55.780;37.520;2023-10-13T11:41:13;99360.00;;;13.28;44.27
61205;BME280;47068;55.780;37.520;2023-10-13T11:43:40;99379.63;;;13.35;44.50
61205;BME280;47068;55.780;37.520;2023-10-13T11:46:09;99376.06;;;13.50;44.95
61205;BME280;47068;55.780;37.520;2023-10-13T11:48:38;99386.94;;;13.69;43.71
61205;BME280;47068;55.780;37.520;2023-10-13T11:51:04;99395.25;;;13.74;44.10
61205;BME280;47068;55.780;37.520;2023-10-13T11:53:33;99400.66;;;13.81;43.73
61205;BME280;47068;55.780;37.520;2023-10-13T11:55:59;99399.81;;;13.80;43.38
61205;BME280;47068;55.780;37.520;2023-10-13T11:58:24;99389.00;;;13.67;44.04
61205;BME280;47068;55.780;37.520;2023-10-13T12:00:50;99396.13;;;13.60;43.56
61205;BME280;47068;55.780;37.520;2023-10-13T12:03:33;99376.78;;;13.58;44.35
61205;BME280;47068;55.780;37.520;2023-10-13T12:06:17;99383.13;;;13.57;43.53
61205;BME280;47068;55.780;37.520;2023-10-13T12:11:46;99383.47;;;13.69;44.44
61205;BME280;47068;55.780;37.520;2023-10-13T12:14:13;99378.69;;;13.64;43.20
61205;BME280;47068;55.780;37.520;2023-10-13T12:16:51;99375.81;;;13.66;43.62
61205;BME280;47068;55.780;37.520;2023-10-13T12:19:17;99382.00;;;13.66;43.90
61205;BME280;47068;55.780;37.520;2023-10-13T12:21:45;99388.59;;;13.70;44.43
61205;BME280;47068;55.780;37.520;2023-10-13T12:24:13;99391.94;;;13.72;44.09
61205;BME280;47068;55.780;37.520;2023-10-13T12:26:50;99384.44;;;13.83;44.43
61205;BME280;47068;55.780;37.520;2023-10-13T12:29:21;99384.91;;;13.93;44.98
61205;BME280;47068;55.780;37.520;2023-10-13T12:31:48;99400.19;;;13.99;45.03
61205;BME280;47068;55.780;37.520;2023-10-13T12:34:26;99389.47;;;13.99;44.34
61205;BME280;47068;55.780;37.520;2023-10-13T12:37:12;99392.78;;;14.01;44.28
61205;BME280;47068;55.780;37.520;2023-10-13T12:39:57;99393.50;;;14.09;44.35
61205;BME280;47068;55.780;37.520;2023-10-13T12:42:41;99395.19;;;14.17;44.48
61205;BME280;47068;55.780;37.520;2023-10-13T12:45:25;99391.28;;;14.19;44.54
61205;BME280;47068;55.780;37.520;2023-10-13T12:48:08;99394.00;;;14.26;43.34
61205;BME280;47068;55.780;37.520;2023-10-13T12:50:52;99403.06;;;14.25;44.12
61205;BME280;47068;55.780;37.520;2023-10-13T12:53:32;99410.91;;;14.27;44.98
61205;BME280;47068;55.780;37.520;2023-10-13T12:55:58;99414.63;;;14.32;44.08
61205;BME280;47068;55.780;37.520;2023-10-13T12:58:23;99403.69;;;14.27;43.64
61205;BME280;47068;55.780;37.520;2023-10-13T13:00:52;99414.25;;;14.35;44.98
61205;BME280;47068;55.780;37.520;2023-10-13T13:03:24;99413.50;;;14.41;43.82
61205;BME280;47068;55.780;37.520;2023-10-13T13:05:54;99404.06;;;14.45;43.94
61205;BME280;47068;55.780;37.520;2023-10-13T13:08:20;99416.00;;;14.43;43.17
61205;BME280;47068;55.780;37.520;2023-10-13T13:10:47;99426.09;;;14.47;46.99
61205;BME280;47068;55.780;37.520;2023-10-13T13:13:13;99418.72;;;14.49;43.42
61205;BME280;47068;55.780;37.520;2023-10-13T13:15:39;99428.66;;;14.34;44.28
61205;BME280;47068;55.780;37.520;2023-10-13T13:18:04;99427.41;;;14.30;44.18
61205;BME280;47068;55.780;37.520;2023-10-13T13:20:38;99437.00;;;14.25;44.51
61205;BME280;47068;55.780;37.520;2023-10-13T13:23:04;99436.97;;;14.18;43.75
61205;BME280;47068;55.780;37.520;2023-10-13T13:25:30;99437.13;;;14.10;44.82
61205;BME280;47068;55.780;37.520;2023-10-13T13:27:57;99440.34;;;14.05;44.73
61205;BME280;47068;55.780;37.520;2023-10-13T13:30:24;99434.59;;;14.02;44.25
61205;BME280;47068;55.780;37.520;2023-10-13T13:32:55;99435.91;;;13.91;44.11